![]() |
EMODnet Physics ERDDAP
Easier access to scientific data |
log in|
Brought to you by EMODnet Physics |
| Dataset Title: | NDBC - Collection of dew point temperature (DEWT) TimeSeries - IN SITU MultiPointTimeSeriesObservation
|
| Institution: | NDBC (Dataset ID: TS_DEWT_NDBC) |
| Information: | Summary
| License
| FGDC
| ISO 19115
| Metadata
| Background
| Subset
| Data Access Form
| Make a graph
|
| Name | Last modified | Size | Description | |
|---|---|---|---|---|
| Parent Directory | - | - | ||
| 42059_TS_DEWT_012008.nc | 26-Oct-2024 16:37 | 449734 | ||
| 42059_TS_DEWT_012010.nc | 26-Oct-2024 16:37 | 450223 | ||
| 42059_TS_DEWT_012011.nc | 26-Oct-2024 16:38 | 449579 | ||
| 42059_TS_DEWT_012012.nc | 26-Oct-2024 16:38 | 448725 | ||
| 42059_TS_DEWT_012013.nc | 26-Oct-2024 16:38 | 429292 | ||
| 42059_TS_DEWT_012014.nc | 26-Oct-2024 16:38 | 448810 | ||
| 42059_TS_DEWT_012016.nc | 26-Oct-2024 16:38 | 448666 | ||
| 42059_TS_DEWT_012017.nc | 26-Oct-2024 16:38 | 448488 | ||
| 42059_TS_DEWT_012018.nc | 26-Oct-2024 16:38 | 450084 | ||
| 42059_TS_DEWT_012020.nc | 26-Oct-2024 16:38 | 449471 | ||
| 42059_TS_DEWT_012022.nc | 26-Oct-2024 16:38 | 448491 | ||
| 42059_TS_DEWT_012023.nc | 26-Oct-2024 16:38 | 450253 | ||
| 42059_TS_DEWT_012024.nc | 18-Jan-2025 07:11 | 449297 | ||
| 42059_TS_DEWT_022008.nc | 26-Oct-2024 16:38 | 429492 | ||
| 42059_TS_DEWT_022010.nc | 26-Oct-2024 16:38 | 419680 | ||
| 42059_TS_DEWT_022011.nc | 26-Oct-2024 16:38 | 429497 | ||
| 42059_TS_DEWT_022012.nc | 26-Oct-2024 16:38 | 427461 | ||
| 42059_TS_DEWT_022013.nc | 26-Oct-2024 16:38 | 429493 | ||
| 42059_TS_DEWT_022014.nc | 26-Oct-2024 16:38 | 450596 | ||
| 42059_TS_DEWT_022016.nc | 26-Oct-2024 16:38 | 429496 | ||
| 42059_TS_DEWT_022017.nc | 26-Oct-2024 16:38 | 449319 | ||
| 42059_TS_DEWT_022020.nc | 26-Oct-2024 16:38 | 429476 | ||
| 42059_TS_DEWT_022022.nc | 26-Oct-2024 16:39 | 433922 | ||
| 42059_TS_DEWT_022023.nc | 26-Oct-2024 16:39 | 1114027 | ||
| 42059_TS_DEWT_022024.nc | 18-Jan-2025 07:11 | 1108902 | ||
| 42059_TS_DEWT_032008.nc | 26-Oct-2024 16:39 | 995726 | ||
| 42059_TS_DEWT_032010.nc | 26-Oct-2024 16:39 | 995798 | ||
| 42059_TS_DEWT_032011.nc | 26-Oct-2024 16:39 | 995132 | ||
| 42059_TS_DEWT_032012.nc | 26-Oct-2024 16:39 | 5447973 | ||
| 42059_TS_DEWT_032013.nc | 26-Oct-2024 16:39 | 432880 | ||
| 42059_TS_DEWT_032014.nc | 26-Oct-2024 16:39 | 426197 | ||
| 42059_TS_DEWT_032016.nc | 26-Oct-2024 16:39 | 426127 | ||
| 42059_TS_DEWT_032017.nc | 26-Oct-2024 16:39 | 421016 | ||
| 42059_TS_DEWT_032018.nc | 26-Oct-2024 16:39 | 429609 | ||
| 42059_TS_DEWT_032020.nc | 26-Oct-2024 16:39 | 429417 | ||
| 42059_TS_DEWT_032022.nc | 26-Oct-2024 16:39 | 429564 | ||
| 42059_TS_DEWT_032023.nc | 26-Oct-2024 16:39 | 429503 | ||
| 42059_TS_DEWT_032024.nc | 20-Jan-2025 09:12 | 429600 | ||
| 42059_TS_DEWT_042007.nc | 26-Oct-2024 16:39 | 428130 | ||
| 42059_TS_DEWT_042008.nc | 26-Oct-2024 16:39 | 429603 | ||
| 42059_TS_DEWT_042009.nc | 26-Oct-2024 16:39 | 429605 | ||
| 42059_TS_DEWT_042010.nc | 26-Oct-2024 16:39 | 429607 | ||
| 42059_TS_DEWT_042011.nc | 26-Oct-2024 16:39 | 426094 | ||
| 42059_TS_DEWT_042012.nc | 26-Oct-2024 16:39 | 429621 | ||
| 42059_TS_DEWT_042013.nc | 26-Oct-2024 16:40 | 429593 | ||
| 42059_TS_DEWT_042014.nc | 26-Oct-2024 16:40 | 429611 | ||
| 42059_TS_DEWT_042016.nc | 26-Oct-2024 16:40 | 429617 | ||
| 42059_TS_DEWT_042017.nc | 26-Oct-2024 16:40 | 429613 | ||
| 42059_TS_DEWT_042018.nc | 26-Oct-2024 16:40 | 449594 | ||
| 42059_TS_DEWT_042019.nc | 26-Oct-2024 16:40 | 450268 | ||
| 42059_TS_DEWT_042020.nc | 26-Oct-2024 16:40 | 450862 | ||
| 42059_TS_DEWT_042022.nc | 26-Oct-2024 16:40 | 446690 | ||
| 42059_TS_DEWT_042023.nc | 26-Oct-2024 16:40 | 449008 | ||
| 42059_TS_DEWT_042024.nc | 20-Jan-2025 09:13 | 443635 | ||
| 42059_TS_DEWT_042025.nc | 01-May-2025 04:04 | 450568 | ||
| 42059_TS_DEWT_052007.nc | 26-Oct-2024 16:40 | 429616 | ||
| 42059_TS_DEWT_052008.nc | 26-Oct-2024 16:40 | 450159 | ||
| 42059_TS_DEWT_052009.nc | 26-Oct-2024 16:40 | 450017 | ||
| 42059_TS_DEWT_052010.nc | 26-Oct-2024 16:40 | 450335 | ||
| 42059_TS_DEWT_052011.nc | 26-Oct-2024 16:40 | 449683 | ||
| 42059_TS_DEWT_052012.nc | 26-Oct-2024 16:40 | 450568 | ||
| 42059_TS_DEWT_052013.nc | 26-Oct-2024 16:40 | 450068 | ||
| 42059_TS_DEWT_052014.nc | 26-Oct-2024 16:40 | 450650 | ||
| 42059_TS_DEWT_052015.nc | 26-Oct-2024 16:40 | 425646 | ||
| 42059_TS_DEWT_052016.nc | 26-Oct-2024 16:41 | 429836 | ||
| 42059_TS_DEWT_052017.nc | 26-Oct-2024 16:41 | 421168 | ||
| 42059_TS_DEWT_052018.nc | 26-Oct-2024 16:41 | 429833 | ||
| 42059_TS_DEWT_052019.nc | 26-Oct-2024 16:41 | 427614 | ||
| 42059_TS_DEWT_052020.nc | 26-Oct-2024 16:41 | 429838 | ||
| 42059_TS_DEWT_052021.nc | 26-Oct-2024 16:41 | 448829 | ||
| 42059_TS_DEWT_052022.nc | 26-Oct-2024 16:41 | 429833 | ||
| 42059_TS_DEWT_052023.nc | 26-Oct-2024 16:41 | 450838 | ||
| 42059_TS_DEWT_052024.nc | 20-Jan-2025 09:13 | 429830 | ||
| 42059_TS_DEWT_052025.nc | 10-May-2025 03:53 | 429587 | ||
| 42059_TS_DEWT_062007.nc | 26-Oct-2024 16:41 | 1263559 | ||
| 42059_TS_DEWT_062008.nc | 26-Oct-2024 16:41 | 1263375 | ||
| 42059_TS_DEWT_062009.nc | 26-Oct-2024 16:41 | 1144177 | ||
| 42059_TS_DEWT_062010.nc | 26-Oct-2024 16:41 | 1144196 | ||
| 42059_TS_DEWT_062011.nc | 26-Oct-2024 16:41 | 915108 | ||
| 42059_TS_DEWT_062012.nc | 26-Oct-2024 16:41 | 5677510 | ||
| 42059_TS_DEWT_062013.nc | 26-Oct-2024 16:41 | 451105 | ||
| 42059_TS_DEWT_062014.nc | 26-Oct-2024 16:41 | 451365 | ||
| 42059_TS_DEWT_062015.nc | 26-Oct-2024 16:41 | 429020 | ||
| 42059_TS_DEWT_062016.nc | 26-Oct-2024 16:42 | 451265 | ||
| 42059_TS_DEWT_062017.nc | 26-Oct-2024 16:42 | 450120 | ||
| 42059_TS_DEWT_062019.nc | 26-Oct-2024 16:42 | 450547 | ||
| 42059_TS_DEWT_062020.nc | 26-Oct-2024 16:42 | 451010 | ||
| 42059_TS_DEWT_062021.nc | 26-Oct-2024 16:42 | 451510 | ||
| 42059_TS_DEWT_062022.nc | 26-Oct-2024 16:42 | 451031 | ||
| 42059_TS_DEWT_062023.nc | 26-Oct-2024 16:42 | 449909 | ||
| 42059_TS_DEWT_062024.nc | 20-Jan-2025 09:13 | 449527 | ||
| 42059_TS_DEWT_072007.nc | 26-Oct-2024 16:42 | 450366 | ||
| 42059_TS_DEWT_072008.nc | 26-Oct-2024 16:42 | 450309 | ||
| 42059_TS_DEWT_072009.nc | 26-Oct-2024 16:42 | 1265881 | ||
| 42059_TS_DEWT_072010.nc | 26-Oct-2024 16:42 | 1174860 | ||
| 42059_TS_DEWT_072011.nc | 26-Oct-2024 16:42 | 1149061 | ||
| 42059_TS_DEWT_072012.nc | 26-Oct-2024 16:42 | 448087 | ||
| 42059_TS_DEWT_072013.nc | 26-Oct-2024 16:42 | 447773 | ||
| 42059_TS_DEWT_072014.nc | 26-Oct-2024 16:42 | 449219 | ||
| 42059_TS_DEWT_072015.nc | 26-Oct-2024 16:42 | 448228 | ||
| 42059_TS_DEWT_072016.nc | 26-Oct-2024 16:42 | 447797 | ||
| 42059_TS_DEWT_072017.nc | 26-Oct-2024 16:42 | 448386 | ||
| 42059_TS_DEWT_072019.nc | 26-Oct-2024 16:42 | 448376 | ||
| 42059_TS_DEWT_072020.nc | 26-Oct-2024 16:42 | 448159 | ||
| 42059_TS_DEWT_072021.nc | 26-Oct-2024 16:42 | 447089 | ||
| 42059_TS_DEWT_072022.nc | 26-Oct-2024 16:43 | 447009 | ||
| 42059_TS_DEWT_072023.nc | 26-Oct-2024 16:43 | 448189 | ||
| 42059_TS_DEWT_072024.nc | 20-Jan-2025 09:14 | 447238 | ||
| 42059_TS_DEWT_082007.nc | 26-Oct-2024 16:43 | 438134 | ||
| 42059_TS_DEWT_082008.nc | 26-Oct-2024 16:43 | 1026596 | ||
| 42059_TS_DEWT_082009.nc | 26-Oct-2024 16:43 | 1017394 | ||
| 42059_TS_DEWT_082010.nc | 26-Oct-2024 16:43 | 983518 | ||
| 42059_TS_DEWT_082011.nc | 26-Oct-2024 16:43 | 449766 | ||
| 42059_TS_DEWT_082012.nc | 26-Oct-2024 16:43 | 450970 | ||
| 42059_TS_DEWT_082013.nc | 26-Oct-2024 16:43 | 450120 | ||
| 42059_TS_DEWT_082014.nc | 26-Oct-2024 16:43 | 450361 | ||
| 42059_TS_DEWT_082015.nc | 26-Oct-2024 16:43 | 451524 | ||
| 42059_TS_DEWT_082016.nc | 26-Oct-2024 16:43 | 450679 | ||
| 42059_TS_DEWT_082017.nc | 26-Oct-2024 16:43 | 451019 | ||
| 42059_TS_DEWT_082019.nc | 26-Oct-2024 16:43 | 449860 | ||
| 42059_TS_DEWT_082020.nc | 26-Oct-2024 16:43 | 449515 | ||
| 42059_TS_DEWT_082021.nc | 26-Oct-2024 16:43 | 450268 | ||
| 42059_TS_DEWT_082022.nc | 26-Oct-2024 16:43 | 450086 | ||
| 42059_TS_DEWT_082023.nc | 26-Oct-2024 16:43 | 459621 | ||
| 42059_TS_DEWT_092007.nc | 26-Oct-2024 16:43 | 1264346 | ||
| 42059_TS_DEWT_092008.nc | 26-Oct-2024 16:43 | 999321 | ||
| 42059_TS_DEWT_092010.nc | 26-Oct-2024 16:43 | 1171498 | ||
| 42059_TS_DEWT_092011.nc | 26-Oct-2024 16:44 | 942953 | ||
| 42059_TS_DEWT_092012.nc | 26-Oct-2024 16:44 | 448871 | ||
| 42059_TS_DEWT_092013.nc | 26-Oct-2024 16:44 | 449325 | ||
| 42059_TS_DEWT_092014.nc | 26-Oct-2024 16:44 | 449996 | ||
| 42059_TS_DEWT_092015.nc | 26-Oct-2024 16:44 | 448821 | ||
| 42059_TS_DEWT_092016.nc | 26-Oct-2024 16:44 | 450401 | ||
| 42059_TS_DEWT_092017.nc | 26-Oct-2024 16:44 | 449972 | ||
| 42059_TS_DEWT_092019.nc | 26-Oct-2024 16:44 | 450171 | ||
| 42059_TS_DEWT_092020.nc | 26-Oct-2024 16:44 | 450115 | ||
| 42059_TS_DEWT_092021.nc | 26-Oct-2024 16:44 | 449030 | ||
| 42059_TS_DEWT_092022.nc | 26-Oct-2024 16:44 | 449385 | ||
| 42059_TS_DEWT_092023.nc | 26-Oct-2024 16:44 | 449480 | ||
| 42059_TS_DEWT_102007.nc | 26-Oct-2024 16:44 | 1115141 | ||
| 42059_TS_DEWT_102008.nc | 26-Oct-2024 16:44 | 1114900 | ||
| 42059_TS_DEWT_102010.nc | 26-Oct-2024 16:45 | 1081087 | ||
| 42059_TS_DEWT_102011.nc | 26-Oct-2024 16:45 | 450780 | ||
| 42059_TS_DEWT_102012.nc | 26-Oct-2024 16:45 | 450904 | ||
| 42059_TS_DEWT_102013.nc | 26-Oct-2024 16:45 | 451001 | ||
| 42059_TS_DEWT_102014.nc | 26-Oct-2024 16:45 | 449933 | ||
| 42059_TS_DEWT_102015.nc | 26-Oct-2024 16:45 | 450158 | ||
| 42059_TS_DEWT_102016.nc | 26-Oct-2024 16:45 | 450622 | ||
| 42059_TS_DEWT_102017.nc | 26-Oct-2024 16:45 | 450401 | ||
| 42059_TS_DEWT_102019.nc | 26-Oct-2024 16:45 | 451090 | ||
| 42059_TS_DEWT_102020.nc | 26-Oct-2024 16:45 | 444357 | ||
| 42059_TS_DEWT_102021.nc | 26-Oct-2024 16:45 | 444762 | ||
| 42059_TS_DEWT_102022.nc | 26-Oct-2024 16:45 | 450127 | ||
| 42059_TS_DEWT_102023.nc | 26-Oct-2024 16:45 | 450555 | ||
| 42059_TS_DEWT_112007.nc | 26-Oct-2024 16:45 | 1112007 | ||
| 42059_TS_DEWT_112008.nc | 26-Oct-2024 16:45 | 1266151 | ||
| 42059_TS_DEWT_112010.nc | 26-Oct-2024 16:45 | 1262525 | ||
| 42059_TS_DEWT_112011.nc | 26-Oct-2024 16:45 | 439464 | ||
| 42059_TS_DEWT_112012.nc | 26-Oct-2024 16:45 | 448957 | ||
| 42059_TS_DEWT_112013.nc | 26-Oct-2024 16:45 | 450415 | ||
| 42059_TS_DEWT_112014.nc | 26-Oct-2024 16:45 | 429866 | ||
| 42059_TS_DEWT_112015.nc | 26-Oct-2024 16:45 | 449478 | ||
| 42059_TS_DEWT_112016.nc | 26-Oct-2024 16:45 | 449609 | ||
| 42059_TS_DEWT_112017.nc | 26-Oct-2024 16:46 | 450572 | ||
| 42059_TS_DEWT_112019.nc | 26-Oct-2024 16:46 | 450020 | ||
| 42059_TS_DEWT_112021.nc | 26-Oct-2024 16:46 | 441635 | ||
| 42059_TS_DEWT_112022.nc | 26-Oct-2024 16:46 | 449076 | ||
| 42059_TS_DEWT_112023.nc | 26-Oct-2024 16:46 | 430134 | ||
| 42059_TS_DEWT_122007.nc | 26-Oct-2024 16:46 | 448939 | ||
| 42059_TS_DEWT_122008.nc | 26-Oct-2024 16:46 | 448785 | ||
| 42059_TS_DEWT_122009.nc | 26-Oct-2024 16:46 | 448624 | ||
| 42059_TS_DEWT_122010.nc | 26-Oct-2024 16:46 | 988311 | ||
| 42059_TS_DEWT_122011.nc | 26-Oct-2024 16:46 | 1111202 | ||
| 42059_TS_DEWT_122012.nc | 26-Oct-2024 16:46 | 1113979 | ||
| 42059_TS_DEWT_122013.nc | 26-Oct-2024 16:46 | 450192 | ||
| 42059_TS_DEWT_122015.nc | 26-Oct-2024 16:46 | 449911 | ||
| 42059_TS_DEWT_122016.nc | 26-Oct-2024 16:46 | 449996 | ||
| 42059_TS_DEWT_122017.nc | 26-Oct-2024 16:46 | 449614 | ||
| 42059_TS_DEWT_122019.nc | 26-Oct-2024 16:46 | 450168 | ||
| 42059_TS_DEWT_122021.nc | 26-Oct-2024 16:47 | 449995 | ||
| 42059_TS_DEWT_122022.nc | 26-Oct-2024 16:47 | 450746 | ||
| 42059_TS_DEWT_122023.nc | 23-Dec-2024 22:50 | 451502 | ||